sensor_id;sensor_type;location;lat;lon;timestamp;pressure;altitude;pressure_sealevel;temperature;humidity
49827;BME280;35715;51.570;6.036;2023-02-19T00:01:07;101637.03;;;11.21;100.00
49827;BME280;35715;51.570;6.036;2023-02-19T00:03:33;101637.81;;;11.20;100.00
49827;BME280;35715;51.570;6.036;2023-02-19T00:06:04;101631.75;;;11.19;100.00
49827;BME280;35715;51.570;6.036;2023-02-19T00:08:30;101638.72;;;11.21;100.00
49827;BME280;35715;51.570;6.036;2023-02-19T00:10:59;101630.97;;;11.21;100.00
49827;BME280;35715;51.570;6.036;2023-02-19T00:13:24;101632.88;;;11.23;100.00
49827;BME280;35715;51.570;6.036;2023-02-19T00:15:51;101636.25;;;11.22;100.00
49827;BME280;35715;51.570;6.036;2023-02-19T00:18:17;101627.34;;;11.18;100.00
49827;BME280;35715;51.570;6.036;2023-02-19T00:20:42;101619.59;;;11.18;100.00
49827;BME280;35715;51.570;6.036;2023-02-19T00:23:07;101623.75;;;11.16;100.00
49827;BME280;35715;51.570;6.036;2023-02-19T00:25:37;101628.16;;;11.17;100.00
49827;BME280;35715;51.570;6.036;2023-02-19T00:28:02;101619.47;;;11.17;100.00
49827;BME280;35715;51.570;6.036;2023-02-19T00:30:27;101621.06;;;11.15;100.00
49827;BME280;35715;51.570;6.036;2023-02-19T00:32:53;101623.28;;;11.10;100.00
49827;BME280;35715;51.570;6.036;2023-02-19T00:35:19;101629.47;;;11.12;100.00
49827;BME280;35715;51.570;6.036;2023-02-19T00:37:44;101632.84;;;11.11;100.00
49827;BME280;35715;51.570;6.036;2023-02-19T00:40:09;101628.44;;;11.10;100.00
49827;BME280;35715;51.570;6.036;2023-02-19T00:42:35;101630.38;;;11.13;100.00
49827;BME280;35715;51.570;6.036;2023-02-19T00:45:00;101628.56;;;11.12;100.00
49827;BME280;35715;51.570;6.036;2023-02-19T00:47:27;101626.88;;;11.12;100.00
49827;BME280;35715;51.570;6.036;2023-02-19T00:49:52;101631.81;;;11.09;100.00
49827;BME280;35715;51.570;6.036;2023-02-19T00:52:18;101628.97;;;11.06;100.00
49827;BME280;35715;51.570;6.036;2023-02-19T00:54:43;101632.47;;;11.07;100.00
49827;BME280;35715;51.570;6.036;2023-02-19T00:57:09;101635.97;;;11.07;100.00
49827;BME280;35715;51.570;6.036;2023-02-19T00:59:34;101640.34;;;11.08;100.00
49827;BME280;35715;51.570;6.036;2023-02-19T01:02:00;101645.75;;;11.11;100.00
49827;BME280;35715;51.570;6.036;2023-02-19T01:04:26;101640.59;;;11.11;100.00
49827;BME280;35715;51.570;6.036;2023-02-19T01:06:53;101641.13;;;11.07;100.00
49827;BME280;35715;51.570;6.036;2023-02-19T01:09:18;101638.66;;;11.09;100.00
49827;BME280;35715;51.570;6.036;2023-02-19T01:11:44;101639.44;;;11.08;100.00
49827;BME280;35715;51.570;6.036;2023-02-19T01:14:09;101646.28;;;11.07;100.00
49827;BME280;35715;51.570;6.036;2023-02-19T01:16:36;101650.69;;;11.08;100.00
49827;BME280;35715;51.570;6.036;2023-02-19T01:19:01;101651.44;;;11.07;100.00
49827;BME280;35715;51.570;6.036;2023-02-19T01:21:27;101646.41;;;11.09;100.00
49827;BME280;35715;51.570;6.036;2023-02-19T01:23:54;101652.22;;;11.06;100.00
49827;BME280;35715;51.570;6.036;2023-02-19T01:28:51;101658.97;;;11.04;100.00
49827;BME280;35715;51.570;6.036;2023-02-19T01:31:18;101652.88;;;11.04;100.00
49827;BME280;35715;51.570;6.036;2023-02-19T01:33:44;101657.16;;;11.03;100.00
49827;BME280;35715;51.570;6.036;2023-02-19T01:36:17;101653.56;;;11.01;100.00
49827;BME280;35715;51.570;6.036;2023-02-19T01:38:43;101658.72;;;11.01;100.00
49827;BME280;35715;51.570;6.036;2023-02-19T01:41:10;101650.28;;;11.04;100.00
49827;BME280;35715;51.570;6.036;2023-02-19T01:43:55;101653.56;;;11.01;100.00
49827;BME280;35715;51.570;6.036;2023-02-19T01:46:33;101659.72;;;11.03;100.00
49827;BME280;35715;51.570;6.036;2023-02-19T01:49:21;101659.38;;;10.98;100.00
49827;BME280;35715;51.570;6.036;2023-02-19T01:51:55;101658.72;;;11.01;100.00
49827;BME280;35715;51.570;6.036;2023-02-19T01:54:24;101664.66;;;11.00;100.00
49827;BME280;35715;51.570;6.036;2023-02-19T01:56:56;101663.88;;;11.01;100.00
49827;BME280;35715;51.570;6.036;2023-02-19T01:59:22;101666.47;;;11.01;100.00
49827;BME280;35715;51.570;6.036;2023-02-19T02:01:48;101671.03;;;10.93;100.00
49827;BME280;35715;51.570;6.036;2023-02-19T02:04:13;101668.81;;;10.98;100.00
49827;BME280;35715;51.570;6.036;2023-02-19T02:09:12;101665.97;;;10.95;100.00
49827;BME280;35715;51.570;6.036;2023-02-19T02:11:56;101665.88;;;10.93;100.00
49827;BME280;35715;51.570;6.036;2023-02-19T02:14:22;101659.53;;;10.90;100.00
49827;BME280;35715;51.570;6.036;2023-02-19T02:16:53;101662.34;;;10.93;100.00
49827;BME280;35715;51.570;6.036;2023-02-19T02:19:29;101655.53;;;10.93;100.00
49827;BME280;35715;51.570;6.036;2023-02-19T02:21:57;101655.66;;;10.95;100.00
49827;BME280;35715;51.570;6.036;2023-02-19T02:32:25;101654.13;;;10.87;100.00
49827;BME280;35715;51.570;6.036;2023-02-19T02:34:53;101654.50;;;10.91;100.00
49827;BME280;35715;51.570;6.036;2023-02-19T02:37:23;101658.75;;;10.91;100.00
49827;BME280;35715;51.570;6.036;2023-02-19T02:39:50;101657.75;;;10.89;100.00
49827;BME280;35715;51.570;6.036;2023-02-19T02:42:16;101655.06;;;10.87;100.00
49827;BME280;35715;51.570;6.036;2023-02-19T02:44:51;101658.94;;;10.82;100.00
49827;BME280;35715;51.570;6.036;2023-02-19T02:47:40;101663.31;;;10.83;100.00
49827;BME280;35715;51.570;6.036;2023-02-19T02:50:06;101659.97;;;10.84;99.94
49827;BME280;35715;51.570;6.036;2023-02-19T02:52:33;101663.56;;;10.86;100.00
49827;BME280;35715;51.570;6.036;2023-02-19T02:55:19;101663.94;;;10.91;100.00
49827;BME280;35715;51.570;6.036;2023-02-19T02:57:44;101671.16;;;10.95;100.00
49827;BME280;35715;51.570;6.036;2023-02-19T03:00:10;101668.31;;;10.92;99.87
49827;BME280;35715;51.570;6.036;2023-02-19T03:02:35;101676.47;;;10.86;99.54
49827;BME280;35715;51.570;6.036;2023-02-19T03:05:03;101674.00;;;10.88;99.63
49827;BME280;35715;51.570;6.036;2023-02-19T03:10:19;101678.94;;;10.85;99.27
49827;BME280;35715;51.570;6.036;2023-02-19T03:12:46;101684.22;;;10.86;99.99
49827;BME280;35715;51.570;6.036;2023-02-19T03:15:35;101688.13;;;10.81;100.00
49827;BME280;35715;51.570;6.036;2023-02-19T03:18:20;101686.72;;;10.74;100.00
49827;BME280;35715;51.570;6.036;2023-02-19T03:21:05;101678.84;;;10.73;100.00
49827;BME280;35715;51.570;6.036;2023-02-19T03:23:31;101687.59;;;10.75;100.00
49827;BME280;35715;51.570;6.036;2023-02-19T03:26:15;101685.03;;;10.75;100.00
49827;BME280;35715;51.570;6.036;2023-02-19T03:28:42;101698.59;;;10.72;100.00
49827;BME280;35715;51.570;6.036;2023-02-19T03:31:28;101692.81;;;10.64;100.00
49827;BME280;35715;51.570;6.036;2023-02-19T03:33:55;101695.09;;;10.72;100.00
49827;BME280;35715;51.570;6.036;2023-02-19T03:36:23;101697.94;;;10.75;100.00
49827;BME280;35715;51.570;6.036;2023-02-19T03:39:02;101701.84;;;10.70;100.00
49827;BME280;35715;51.570;6.036;2023-02-19T03:41:42;101699.41;;;10.61;100.00
49827;BME280;35715;51.570;6.036;2023-02-19T03:44:14;101706.13;;;10.59;100.00
49827;BME280;35715;51.570;6.036;2023-02-19T03:46:46;101707.56;;;10.55;100.00
49827;BME280;35715;51.570;6.036;2023-02-19T03:51:55;101715.69;;;10.60;100.00
49827;BME280;35715;51.570;6.036;2023-02-19T03:57:22;101724.19;;;10.59;100.00
49827;BME280;35715;51.570;6.036;2023-02-19T03:59:50;101732.19;;;10.62;100.00
49827;BME280;35715;51.570;6.036;2023-02-19T04:02:27;101732.81;;;10.59;100.00
49827;BME280;35715;51.570;6.036;2023-02-19T04:04:55;101734.13;;;10.54;100.00
49827;BME280;35715;51.570;6.036;2023-02-19T04:07:24;101736.19;;;10.58;100.00
49827;BME280;35715;51.570;6.036;2023-02-19T04:09:50;101734.38;;;10.57;100.00
49827;BME280;35715;51.570;6.036;2023-02-19T04:12:16;101744.84;;;10.59;100.00
49827;BME280;35715;51.570;6.036;2023-02-19T04:14:44;101750.00;;;10.59;100.00
49827;BME280;35715;51.570;6.036;2023-02-19T04:17:13;101757.75;;;10.59;100.00
49827;BME280;35715;51.570;6.036;2023-02-19T04:19:41;101749.88;;;10.57;100.00
49827;BME280;35715;51.570;6.036;2023-02-19T04:22:06;101755.03;;;10.57;100.00
49827;BME280;35715;51.570;6.036;2023-02-19T04:24:34;101754.91;;;10.56;100.00
49827;BME280;35715;51.570;6.036;2023-02-19T04:27:07;101755.66;;;10.55;100.00
49827;BME280;35715;51.570;6.036;2023-02-19T04:29:32;101756.72;;;10.57;100.00
49827;BME280;35715;51.570;6.036;2023-02-19T04:31:57;101767.94;;;10.57;100.00
49827;BME280;35715;51.570;6.036;2023-02-19T04:34:23;101761.75;;;10.55;100.00
49827;BME280;35715;51.570;6.036;2023-02-19T04:36:53;101767.81;;;10.56;100.00
49827;BME280;35715;51.570;6.036;2023-02-19T04:39:18;101780.72;;;10.56;100.00
49827;BME280;35715;51.570;6.036;2023-02-19T04:41:43;101782.28;;;10.54;100.00
49827;BME280;35715;51.570;6.036;2023-02-19T04:44:09;101772.22;;;10.57;100.00
49827;BME280;35715;51.570;6.036;2023-02-19T04:46:35;101787.81;;;10.58;100.00
49827;BME280;35715;51.570;6.036;2023-02-19T04:49:00;101794.63;;;10.58;100.00
49827;BME280;35715;51.570;6.036;2023-02-19T04:51:25;101781.97;;;10.61;100.00
49827;BME280;35715;51.570;6.036;2023-02-19T04:53:51;101791.78;;;10.55;100.00
49827;BME280;35715;51.570;6.036;2023-02-19T04:56:16;101805.22;;;10.51;100.00
49827;BME280;35715;51.570;6.036;2023-02-19T04:58:42;101800.19;;;10.52;100.00
49827;BME280;35715;51.570;6.036;2023-02-19T05:01:09;101798.66;;;10.54;100.00
49827;BME280;35715;51.570;6.036;2023-02-19T05:03:34;101807.28;;;10.55;100.00
49827;BME280;35715;51.570;6.036;2023-02-19T05:06:08;101814.13;;;10.54;100.00
49827;BME280;35715;51.570;6.036;2023-02-19T05:08:34;101816.31;;;10.60;100.00
49827;BME280;35715;51.570;6.036;2023-02-19T05:11:01;101823.28;;;10.61;100.00
49827;BME280;35715;51.570;6.036;2023-02-19T05:13:26;101828.84;;;10.55;100.00
49827;BME280;35715;51.570;6.036;2023-02-19T05:15:59;101830.25;;;10.52;100.00
49827;BME280;35715;51.570;6.036;2023-02-19T05:18:25;101836.72;;;10.46;100.00
49827;BME280;35715;51.570;6.036;2023-02-19T05:20:50;101840.19;;;10.47;100.00
49827;BME280;35715;51.570;6.036;2023-02-19T05:23:16;101835.78;;;10.46;100.00
49827;BME280;35715;51.570;6.036;2023-02-19T05:25:49;101841.50;;;10.42;100.00
49827;BME280;35715;51.570;6.036;2023-02-19T05:28:15;101846.41;;;10.39;100.00
49827;BME280;35715;51.570;6.036;2023-02-19T05:30:44;101860.69;;;10.45;100.00
49827;BME280;35715;51.570;6.036;2023-02-19T05:33:09;101851.69;;;10.40;100.00
49827;BME280;35715;51.570;6.036;2023-02-19T05:35:41;101854.75;;;10.36;100.00
49827;BME280;35715;51.570;6.036;2023-02-19T05:38:08;101848.28;;;10.31;100.00
49827;BME280;35715;51.570;6.036;2023-02-19T05:40:33;101842.06;;;10.29;100.00
49827;BME280;35715;51.570;6.036;2023-02-19T05:42:58;101855.91;;;10.29;100.00
49827;BME280;35715;51.570;6.036;2023-02-19T05:45:23;101854.97;;;10.29;100.00
49827;BME280;35715;51.570;6.036;2023-02-19T05:47:49;101858.63;;;10.31;100.00
49827;BME280;35715;51.570;6.036;2023-02-19T05:50:14;101869.34;;;10.36;100.00
49827;BME280;35715;51.570;6.036;2023-02-19T05:52:39;101856.16;;;10.33;100.00
49827;BME280;35715;51.570;6.036;2023-02-19T05:55:05;101857.09;;;10.33;100.00
49827;BME280;35715;51.570;6.036;2023-02-19T05:57:38;101855.41;;;10.34;100.00
49827;BME280;35715;51.570;6.036;2023-02-19T06:00:04;101860.56;;;10.34;100.00
49827;BME280;35715;51.570;6.036;2023-02-19T06:02:29;101867.25;;;10.32;100.00
49827;BME280;35715;51.570;6.036;2023-02-19T06:04:54;101865.16;;;10.27;100.00
49827;BME280;35715;51.570;6.036;2023-02-19T06:07:21;101861.69;;;10.27;100.00
49827;BME280;35715;51.570;6.036;2023-02-19T06:09:48;101861.81;;;10.28;100.00
49827;BME280;35715;51.570;6.036;2023-02-19T06:12:14;101855.22;;;10.32;100.00
49827;BME280;35715;51.570;6.036;2023-02-19T06:14:39;101870.59;;;10.30;100.00
49827;BME280;35715;51.570;6.036;2023-02-19T06:17:06;101881.56;;;10.28;100.00
49827;BME280;35715;51.570;6.036;2023-02-19T06:19:31;101883.97;;;10.26;100.00
49827;BME280;35715;51.570;6.036;2023-02-19T06:21:57;101873.97;;;10.29;100.00
49827;BME280;35715;51.570;6.036;2023-02-19T06:24:22;101881.97;;;10.33;100.00
49827;BME280;35715;51.570;6.036;2023-02-19T06:27:00;101888.94;;;10.34;100.00
49827;BME280;35715;51.570;6.036;2023-02-19T06:29:25;101887.88;;;10.32;100.00
49827;BME280;35715;51.570;6.036;2023-02-19T06:31:50;101894.47;;;10.28;100.00
49827;BME280;35715;51.570;6.036;2023-02-19T06:34:15;101895.97;;;10.26;100.00
49827;BME280;35715;51.570;6.036;2023-02-19T06:36:42;101902.19;;;10.28;100.00
49827;BME280;35715;51.570;6.036;2023-02-19T06:39:08;101899.19;;;10.23;100.00
49827;BME280;35715;51.570;6.036;2023-02-19T06:41:33;101907.06;;;10.25;100.00
49827;BME280;35715;51.570;6.036;2023-02-19T06:43:59;101911.47;;;10.26;100.00
49827;BME280;35715;51.570;6.036;2023-02-19T06:46:24;101917.00;;;10.20;100.00
49827;BME280;35715;51.570;6.036;2023-02-19T06:48:49;101923.84;;;10.20;100.00
49827;BME280;35715;51.570;6.036;2023-02-19T06:51:15;101924.84;;;10.22;100.00
49827;BME280;35715;51.570;6.036;2023-02-19T06:53:42;101940.34;;;10.22;100.00
49827;BME280;35715;51.570;6.036;2023-02-19T06:58:53;101934.50;;;10.14;100.00
49827;BME280;35715;51.570;6.036;2023-02-19T07:01:19;101941.50;;;10.15;100.00
49827;BME280;35715;51.570;6.036;2023-02-19T07:03:44;101936.69;;;10.09;100.00
49827;BME280;35715;51.570;6.036;2023-02-19T07:06:15;101934.91;;;10.08;100.00
49827;BME280;35715;51.570;6.036;2023-02-19T07:08:40;101943.53;;;10.09;100.00
49827;BME280;35715;51.570;6.036;2023-02-19T07:11:07;101944.06;;;10.15;100.00
49827;BME280;35715;51.570;6.036;2023-02-19T07:13:32;101955.00;;;10.12;100.00
49827;BME280;35715;51.570;6.036;2023-02-19T07:16:02;101959.00;;;10.09;100.00
49827;BME280;35715;51.570;6.036;2023-02-19T07:18:28;101970.63;;;10.14;100.00
49827;BME280;35715;51.570;6.036;2023-02-19T07:20:53;101971.28;;;10.11;100.00
49827;BME280;35715;51.570;6.036;2023-02-19T07:23:19;101961.22;;;10.15;100.00
49827;BME280;35715;51.570;6.036;2023-02-19T07:25:54;101971.00;;;10.19;100.00
49827;BME280;35715;51.570;6.036;2023-02-19T07:28:19;101974.00;;;10.23;100.00
49827;BME280;35715;51.570;6.036;2023-02-19T07:30:45;101978.25;;;10.23;100.00
49827;BME280;35715;51.570;6.036;2023-02-19T07:33:10;101983.81;;;10.27;100.00
49827;BME280;35715;51.570;6.036;2023-02-19T07:35:35;101987.47;;;10.29;100.00
49827;BME280;35715;51.570;6.036;2023-02-19T07:38:00;101992.31;;;10.26;100.00
49827;BME280;35715;51.570;6.036;2023-02-19T07:40:26;101990.16;;;10.31;100.00
49827;BME280;35715;51.570;6.036;2023-02-19T07:42:51;102001.38;;;10.32;100.00
49827;BME280;35715;51.570;6.036;2023-02-19T07:45:16;102003.06;;;10.31;100.00
49827;BME280;35715;51.570;6.036;2023-02-19T07:47:43;102019.44;;;10.32;100.00
49827;BME280;35715;51.570;6.036;2023-02-19T07:50:09;102017.91;;;10.34;100.00
49827;BME280;35715;51.570;6.036;2023-02-19T07:52:34;102021.56;;;10.36;100.00
49827;BME280;35715;51.570;6.036;2023-02-19T07:54:59;102031.22;;;10.38;100.00
49827;BME280;35715;51.570;6.036;2023-02-19T07:57:29;102025.69;;;10.44;100.00
49827;BME280;35715;51.570;6.036;2023-02-19T07:59:55;102036.41;;;10.48;100.00
49827;BME280;35715;51.570;6.036;2023-02-19T08:02:20;102045.59;;;10.45;100.00
49827;BME280;35715;51.570;6.036;2023-02-19T08:05:05;102036.38;;;10.38;100.00
49827;BME280;35715;51.570;6.036;2023-02-19T08:07:33;102036.91;;;10.44;100.00
49827;BME280;35715;51.570;6.036;2023-02-19T08:09:59;102047.22;;;10.44;100.00
49827;BME280;35715;51.570;6.036;2023-02-19T08:12:44;102047.38;;;10.46;100.00
49827;BME280;35715;51.570;6.036;2023-02-19T08:15:28;102050.06;;;10.47;100.00
49827;BME280;35715;51.570;6.036;2023-02-19T08:17:53;102048.69;;;10.51;100.00
49827;BME280;35715;51.570;6.036;2023-02-19T08:20:19;102057.41;;;10.43;100.00
49827;BME280;35715;51.570;6.036;2023-02-19T08:22:44;102051.50;;;10.44;100.00
49827;BME280;35715;51.570;6.036;2023-02-19T08:25:09;102050.81;;;10.36;100.00
49827;BME280;35715;51.570;6.036;2023-02-19T08:27:34;102056.13;;;10.38;100.00
49827;BME280;35715;51.570;6.036;2023-02-19T08:30:00;102062.84;;;10.36;100.00
49827;BME280;35715;51.570;6.036;2023-02-19T08:32:25;102057.69;;;10.36;100.00
49827;BME280;35715;51.570;6.036;2023-02-19T08:34:50;102066.03;;;10.33;100.00
49827;BME280;35715;51.570;6.036;2023-02-19T08:37:22;102063.66;;;10.26;100.00
49827;BME280;35715;51.570;6.036;2023-02-19T08:39:47;102077.81;;;10.21;100.00
49827;BME280;35715;51.570;6.036;2023-02-19T08:42:12;102078.31;;;10.17;100.00
49827;BME280;35715;51.570;6.036;2023-02-19T08:44:37;102074.72;;;10.25;100.00
49827;BME280;35715;51.570;6.036;2023-02-19T08:47:09;102075.38;;;10.22;100.00
49827;BME280;35715;51.570;6.036;2023-02-19T08:49:34;102074.50;;;10.32;100.00
49827;BME280;35715;51.570;6.036;2023-02-19T08:51:59;102085.13;;;10.35;100.00
49827;BME280;35715;51.570;6.036;2023-02-19T08:54:24;102089.53;;;10.36;100.00
49827;BME280;35715;51.570;6.036;2023-02-19T08:56:52;102098.56;;;10.41;100.00
49827;BME280;35715;51.570;6.036;2023-02-19T08:59:17;102104.53;;;10.51;100.00
49827;BME280;35715;51.570;6.036;2023-02-19T09:01:44;102108.19;;;10.53;100.00
49827;BME280;35715;51.570;6.036;2023-02-19T09:04:11;102108.22;;;10.63;100.00
49827;BME280;35715;51.570;6.036;2023-02-19T09:06:42;102102.78;;;10.60;100.00
49827;BME280;35715;51.570;6.036;2023-02-19T09:09:07;102110.53;;;10.60;100.00
49827;BME280;35715;51.570;6.036;2023-02-19T09:11:32;102106.94;;;10.68;100.00
49827;BME280;35715;51.570;6.036;2023-02-19T09:13:57;102108.38;;;10.75;100.00
49827;BME280;35715;51.570;6.036;2023-02-19T09:16:24;102113.66;;;10.76;100.00
49827;BME280;35715;51.570;6.036;2023-02-19T09:18:49;102116.69;;;10.81;100.00
49827;BME280;35715;51.570;6.036;2023-02-19T09:21:14;102122.38;;;10.87;100.00
49827;BME280;35715;51.570;6.036;2023-02-19T09:23:39;102123.25;;;10.88;100.00
49827;BME280;35715;51.570;6.036;2023-02-19T09:26:12;102118.47;;;10.82;100.00
49827;BME280;35715;51.570;6.036;2023-02-19T09:28:37;102118.81;;;10.76;100.00
49827;BME280;35715;51.570;6.036;2023-02-19T09:31:06;102110.53;;;10.70;100.00
49827;BME280;35715;51.570;6.036;2023-02-19T09:33:31;102119.63;;;10.75;100.00
49827;BME280;35715;51.570;6.036;2023-02-19T09:36:00;102117.03;;;10.75;100.00
49827;BME280;35715;51.570;6.036;2023-02-19T09:38:25;102127.09;;;10.72;100.00
49827;BME280;35715;51.570;6.036;2023-02-19T09:40:50;102124.03;;;10.87;100.00
49827;BME280;35715;51.570;6.036;2023-02-19T09:43:17;102115.91;;;10.92;100.00
49827;BME280;35715;51.570;6.036;2023-02-19T09:45:45;102127.44;;;11.06;100.00
49827;BME280;35715;51.570;6.036;2023-02-19T09:48:11;102135.88;;;11.24;100.00
49827;BME280;35715;51.570;6.036;2023-02-19T09:50:38;102133.81;;;11.30;100.00
49827;BME280;35715;51.570;6.036;2023-02-19T09:53:09;102148.91;;;11.26;100.00
49827;BME280;35715;51.570;6.036;2023-02-19T09:55:42;102147.75;;;11.22;100.00
49827;BME280;35715;51.570;6.036;2023-02-19T09:58:22;102152.53;;;11.17;100.00
49827;BME280;35715;51.570;6.036;2023-02-19T10:00:51;102165.31;;;11.26;100.00
49827;BME280;35715;51.570;6.036;2023-02-19T10:05:57;102185.97;;;11.16;100.00
49827;BME280;35715;51.570;6.036;2023-02-19T10:08:23;102190.22;;;11.15;100.00
49827;BME280;35715;51.570;6.036;2023-02-19T10:10:52;102189.91;;;11.02;100.00
49827;BME280;35715;51.570;6.036;2023-02-19T10:15:56;102198.16;;;10.88;100.00
49827;BME280;35715;51.570;6.036;2023-02-19T10:18:23;102207.19;;;10.82;100.00
49827;BME280;35715;51.570;6.036;2023-02-19T10:20:49;102217.84;;;10.77;100.00
49827;BME280;35715;51.570;6.036;2023-02-19T10:23:14;102233.22;;;10.75;100.00
49827;BME280;35715;51.570;6.036;2023-02-19T10:25:56;102236.75;;;10.67;100.00
49827;BME280;35715;51.570;6.036;2023-02-19T10:28:22;102238.66;;;10.78;100.00
49827;BME280;35715;51.570;6.036;2023-02-19T10:30:54;102238.44;;;10.86;100.00
49827;BME280;35715;51.570;6.036;2023-02-19T10:33:20;102251.22;;;10.94;100.00
49827;BME280;35715;51.570;6.036;2023-02-19T10:38:28;102254.13;;;11.08;100.00
49827;BME280;35715;51.570;6.036;2023-02-19T10:40:59;102243.38;;;11.03;100.00
49827;BME280;35715;51.570;6.036;2023-02-19T10:43:26;102243.47;;;10.94;100.00
49827;BME280;35715;51.570;6.036;2023-02-19T10:48:28;102260.38;;;10.91;100.00
49827;BME280;35715;51.570;6.036;2023-02-19T10:50:55;102259.63;;;10.92;100.00
49827;BME280;35715;51.570;6.036;2023-02-19T10:53:34;102272.16;;;10.97;100.00
49827;BME280;35715;51.570;6.036;2023-02-19T10:56:06;102267.75;;;11.26;100.00
49827;BME280;35715;51.570;6.036;2023-02-19T10:58:32;102276.34;;;11.45;100.00
49827;BME280;35715;51.570;6.036;2023-02-19T11:04:16;102273.28;;;11.49;100.00
49827;BME280;35715;51.570;6.036;2023-02-19T11:06:43;102277.91;;;11.43;98.66
49827;BME280;35715;51.570;6.036;2023-02-19T11:09:31;102279.84;;;11.46;99.70
49827;BME280;35715;51.570;6.036;2023-02-19T11:11:59;102271.97;;;11.54;98.93
49827;BME280;35715;51.570;6.036;2023-02-19T11:14:24;102274.75;;;11.77;99.16
49827;BME280;35715;51.570;6.036;2023-02-19T11:16:59;102268.34;;;12.13;97.94
49827;BME280;35715;51.570;6.036;2023-02-19T11:21:55;102267.94;;;12.08;93.62
49827;BME280;35715;51.570;6.036;2023-02-19T11:24:28;102264.44;;;12.07;95.54
49827;BME280;35715;51.570;6.036;2023-02-19T11:26:56;102258.38;;;11.97;94.81
49827;BME280;35715;51.570;6.036;2023-02-19T11:29:22;102252.03;;;11.93;95.71
49827;BME280;35715;51.570;6.036;2023-02-19T11:31:48;102257.56;;;11.87;95.78
49827;BME280;35715;51.570;6.036;2023-02-19T11:36:40;102247.44;;;11.70;93.62
49827;BME280;35715;51.570;6.036;2023-02-19T11:41:51;102235.69;;;11.63;94.71
49827;BME280;35715;51.570;6.036;2023-02-19T11:44:27;102236.56;;;11.53;93.12
49827;BME280;35715;51.570;6.036;2023-02-19T11:49:48;102241.97;;;11.36;92.69
49827;BME280;35715;51.570;6.036;2023-02-19T11:52:25;102241.72;;;11.43;94.06
49827;BME280;35715;51.570;6.036;2023-02-19T11:57:39;102248.94;;;11.47;94.75
49827;BME280;35715;51.570;6.036;2023-02-19T12:02:44;102273.00;;;11.46;94.88
49827;BME280;35715;51.570;6.036;2023-02-19T12:05:20;102262.94;;;11.49;94.91
49827;BME280;35715;51.570;6.036;2023-02-19T12:15:38;102259.03;;;12.15;93.37
49827;BME280;35715;51.570;6.036;2023-02-19T12:20:41;102257.06;;;11.92;89.79
49827;BME280;35715;51.570;6.036;2023-02-19T12:26:00;102254.06;;;11.77;89.33
49827;BME280;35715;51.570;6.036;2023-02-19T12:28:32;102263.59;;;11.57;87.73
49827;BME280;35715;51.570;6.036;2023-02-19T12:41:18;102274.19;;;10.91;91.59
49827;BME280;35715;51.570;6.036;2023-02-19T12:43:46;102265.28;;;10.88;92.05
49827;BME280;35715;51.570;6.036;2023-02-19T12:46:20;102259.91;;;10.95;92.43
49827;BME280;35715;51.570;6.036;2023-02-19T12:48:49;102251.41;;;11.06;92.80
49827;BME280;35715;51.570;6.036;2023-02-19T12:53:47;102255.94;;;11.48;93.99
49827;BME280;35715;51.570;6.036;2023-02-19T12:59:02;102259.13;;;11.85;92.38
49827;BME280;35715;51.570;6.036;2023-02-19T13:01:31;102263.38;;;11.85;91.57
49827;BME280;35715;51.570;6.036;2023-02-19T13:04:14;102269.03;;;11.81;90.41
49827;BME280;35715;51.570;6.036;2023-02-19T13:09:44;102277.50;;;11.99;89.97
49827;BME280;35715;51.570;6.036;2023-02-19T13:14:57;102280.75;;;11.96;87.87
49827;BME280;35715;51.570;6.036;2023-02-19T13:17:35;102287.69;;;11.87;86.20
49827;BME280;35715;51.570;6.036;2023-02-19T13:20:19;102285.47;;;11.81;85.99
49827;BME280;35715;51.570;6.036;2023-02-19T13:31:43;102298.31;;;11.50;86.64
49827;BME280;35715;51.570;6.036;2023-02-19T13:34:19;102311.03;;;11.58;87.54
49827;BME280;35715;51.570;6.036;2023-02-19T13:36:52;102308.25;;;11.46;86.25
49827;BME280;35715;51.570;6.036;2023-02-19T13:39:18;102311.72;;;11.76;86.04
49827;BME280;35715;51.570;6.036;2023-02-19T13:41:51;102310.00;;;12.05;85.93
49827;BME280;35715;51.570;6.036;2023-02-19T13:44:18;102315.28;;;12.28;84.76
49827;BME280;35715;51.570;6.036;2023-02-19T13:49:23;102319.81;;;11.99;82.11
49827;BME280;35715;51.570;6.036;2023-02-19T13:51:49;102322.97;;;11.86;82.54
49827;BME280;35715;51.570;6.036;2023-02-19T13:54:28;102331.78;;;11.78;82.28
49827;BME280;35715;51.570;6.036;2023-02-19T13:59:42;102337.94;;;11.60;82.46
49827;BME280;35715;51.570;6.036;2023-02-19T14:02:10;102333.84;;;11.43;80.01
49827;BME280;35715;51.570;6.036;2023-02-19T14:24:49;102358.66;;;11.11;79.55
49827;BME280;35715;51.570;6.036;2023-02-19T14:27:18;102358.72;;;11.03;80.19
49827;BME280;35715;51.570;6.036;2023-02-19T14:29:44;102363.88;;;11.03;80.15
49827;BME280;35715;51.570;6.036;2023-02-19T14:32:11;102364.91;;;11.05;80.47
49827;BME280;35715;51.570;6.036;2023-02-19T14:34:43;102375.25;;;11.05;80.90
49827;BME280;35715;51.570;6.036;2023-02-19T14:37:15;102372.88;;;10.97;80.79
49827;BME280;35715;51.570;6.036;2023-02-19T14:39:42;102380.34;;;10.94;81.03
49827;BME280;35715;51.570;6.036;2023-02-19T14:42:13;102374.75;;;10.90;81.18
49827;BME280;35715;51.570;6.036;2023-02-19T14:44:47;102382.44;;;10.79;81.28
49827;BME280;35715;51.570;6.036;2023-02-19T14:47:18;102372.94;;;10.70;80.67
49827;BME280;35715;51.570;6.036;2023-02-19T14:52:33;102353.91;;;10.59;81.74
49827;BME280;35715;51.570;6.036;2023-02-19T14:57:33;102350.44;;;10.58;81.96